sensor_id;sensor_type;location;lat;lon;timestamp;temperature;humidity
41876;DHT22;27555;50.808;4.402;2023-09-19T00:01:40;17.00;99.90
41876;DHT22;27555;50.808;4.402;2023-09-19T00:04:09;16.90;99.90
41876;DHT22;27555;50.808;4.402;2023-09-19T00:06:38;17.00;99.90
41876;DHT22;27555;50.808;4.402;2023-09-19T00:09:04;17.00;99.90
41876;DHT22;27555;50.808;4.402;2023-09-19T00:11:29;17.10;99.90
41876;DHT22;27555;50.808;4.402;2023-09-19T00:13:56;17.20;99.90
41876;DHT22;27555;50.808;4.402;2023-09-19T00:16:22;17.10;99.90
41876;DHT22;27555;50.808;4.402;2023-09-19T00:18:48;17.00;99.90
41876;DHT22;27555;50.808;4.402;2023-09-19T00:21:14;17.20;99.90
41876;DHT22;27555;50.808;4.402;2023-09-19T00:23:40;17.20;99.90
41876;DHT22;27555;50.808;4.402;2023-09-19T00:26:07;17.00;99.90
41876;DHT22;27555;50.808;4.402;2023-09-19T00:28:33;16.90;99.90
41876;DHT22;27555;50.808;4.402;2023-09-19T00:30:59;16.90;99.90
41876;DHT22;27555;50.808;4.402;2023-09-19T00:33:27;16.90;99.90
41876;DHT22;27555;50.808;4.402;2023-09-19T00:35:56;16.90;99.90
41876;DHT22;27555;50.808;4.402;2023-09-19T00:38:23;16.70;99.90
41876;DHT22;27555;50.808;4.402;2023-09-19T00:40:52;16.90;99.90
41876;DHT22;27555;50.808;4.402;2023-09-19T00:43:19;17.10;99.90
41876;DHT22;27555;50.808;4.402;2023-09-19T00:45:47;17.20;99.90
41876;DHT22;27555;50.808;4.402;2023-09-19T00:48:14;17.10;99.90
41876;DHT22;27555;50.808;4.402;2023-09-19T00:50:42;17.00;99.90
41876;DHT22;27555;50.808;4.402;2023-09-19T00:53:09;17.10;99.90
41876;DHT22;27555;50.808;4.402;2023-09-19T00:55:39;16.90;99.90
41876;DHT22;27555;50.808;4.402;2023-09-19T00:58:06;16.90;99.90
41876;DHT22;27555;50.808;4.402;2023-09-19T01:00:33;16.80;99.90
41876;DHT22;27555;50.808;4.402;2023-09-19T01:03:00;16.80;99.90
41876;DHT22;27555;50.808;4.402;2023-09-19T01:05:27;16.80;99.90
41876;DHT22;27555;50.808;4.402;2023-09-19T01:07:53;16.90;99.90
41876;DHT22;27555;50.808;4.402;2023-09-19T01:10:20;16.90;99.90
41876;DHT22;27555;50.808;4.402;2023-09-19T01:12:54;16.90;99.90
41876;DHT22;27555;50.808;4.402;2023-09-19T01:18:30;16.90;99.90
41876;DHT22;27555;50.808;4.402;2023-09-19T01:21:15;17.00;99.90
41876;DHT22;27555;50.808;4.402;2023-09-19T01:29:42;16.70;99.90
41876;DHT22;27555;50.808;4.402;2023-09-19T01:32:11;16.70;99.90
41876;DHT22;27555;50.808;4.402;2023-09-19T01:37:16;16.70;99.90
41876;DHT22;27555;50.808;4.402;2023-09-19T01:39:50;16.80;99.90
41876;DHT22;27555;50.808;4.402;2023-09-19T01:47:52;16.70;99.90
41876;DHT22;27555;50.808;4.402;2023-09-19T01:50:32;16.70;99.90
41876;DHT22;27555;50.808;4.402;2023-09-19T01:53:05;16.70;99.90
41876;DHT22;27555;50.808;4.402;2023-09-19T01:55:37;16.90;99.90
41876;DHT22;27555;50.808;4.402;2023-09-19T01:58:14;16.70;99.90
41876;DHT22;27555;50.808;4.402;2023-09-19T02:00:42;16.70;99.90
41876;DHT22;27555;50.808;4.402;2023-09-19T02:03:10;16.80;99.90
41876;DHT22;27555;50.808;4.402;2023-09-19T02:05:37;16.70;99.90
41876;DHT22;27555;50.808;4.402;2023-09-19T02:08:04;16.60;99.90
41876;DHT22;27555;50.808;4.402;2023-09-19T02:10:30;16.70;99.90
41876;DHT22;27555;50.808;4.402;2023-09-19T02:12:56;16.80;99.90
41876;DHT22;27555;50.808;4.402;2023-09-19T02:15:22;16.80;99.90
41876;DHT22;27555;50.808;4.402;2023-09-19T02:17:47;16.70;99.90
41876;DHT22;27555;50.808;4.402;2023-09-19T02:20:13;16.70;99.90
41876;DHT22;27555;50.808;4.402;2023-09-19T02:22:41;16.70;99.90
41876;DHT22;27555;50.808;4.402;2023-09-19T02:25:07;16.80;99.90
41876;DHT22;27555;50.808;4.402;2023-09-19T02:27:34;16.90;99.90
41876;DHT22;27555;50.808;4.402;2023-09-19T02:29:59;16.60;99.90
41876;DHT22;27555;50.808;4.402;2023-09-19T02:32:29;16.40;99.90
41876;DHT22;27555;50.808;4.402;2023-09-19T02:34:57;16.50;99.90
41876;DHT22;27555;50.808;4.402;2023-09-19T02:37:29;16.50;99.90
41876;DHT22;27555;50.808;4.402;2023-09-19T02:39:55;16.60;99.90
41876;DHT22;27555;50.808;4.402;2023-09-19T02:42:22;16.60;99.90
41876;DHT22;27555;50.808;4.402;2023-09-19T02:44:48;16.60;99.90
41876;DHT22;27555;50.808;4.402;2023-09-19T02:47:14;16.60;99.90
41876;DHT22;27555;50.808;4.402;2023-09-19T02:49:40;16.80;99.90
41876;DHT22;27555;50.808;4.402;2023-09-19T02:52:07;16.90;99.90
41876;DHT22;27555;50.808;4.402;2023-09-19T02:54:33;16.80;99.90
41876;DHT22;27555;50.808;4.402;2023-09-19T02:56:59;16.80;99.90
41876;DHT22;27555;50.808;4.402;2023-09-19T02:59:24;16.80;99.90
41876;DHT22;27555;50.808;4.402;2023-09-19T03:01:51;16.70;99.90
41876;DHT22;27555;50.808;4.402;2023-09-19T03:04:19;16.60;99.90
41876;DHT22;27555;50.808;4.402;2023-09-19T03:06:45;16.60;99.90
41876;DHT22;27555;50.808;4.402;2023-09-19T03:09:11;16.50;99.90
41876;DHT22;27555;50.808;4.402;2023-09-19T03:11:38;16.60;99.90
41876;DHT22;27555;50.808;4.402;2023-09-19T03:14:05;16.60;99.90
41876;DHT22;27555;50.808;4.402;2023-09-19T03:16:31;16.60;99.90
41876;DHT22;27555;50.808;4.402;2023-09-19T03:18:57;16.60;99.90
41876;DHT22;27555;50.808;4.402;2023-09-19T03:21:23;16.50;99.90
41876;DHT22;27555;50.808;4.402;2023-09-19T03:23:50;16.40;99.90
41876;DHT22;27555;50.808;4.402;2023-09-19T03:26:15;16.60;99.90
41876;DHT22;27555;50.808;4.402;2023-09-19T03:28:42;16.70;99.90
41876;DHT22;27555;50.808;4.402;2023-09-19T03:31:09;16.80;99.90
41876;DHT22;27555;50.808;4.402;2023-09-19T03:33:35;16.70;99.90
41876;DHT22;27555;50.808;4.402;2023-09-19T03:36:02;16.70;99.90
41876;DHT22;27555;50.808;4.402;2023-09-19T03:38:30;16.80;99.90
41876;DHT22;27555;50.808;4.402;2023-09-19T03:40:57;16.80;99.90
41876;DHT22;27555;50.808;4.402;2023-09-19T03:43:23;16.80;99.90
41876;DHT22;27555;50.808;4.402;2023-09-19T03:45:48;16.70;99.90
41876;DHT22;27555;50.808;4.402;2023-09-19T03:48:17;16.60;99.90
41876;DHT22;27555;50.808;4.402;2023-09-19T03:50:42;16.60;99.90
41876;DHT22;27555;50.808;4.402;2023-09-19T03:53:09;16.60;99.90
41876;DHT22;27555;50.808;4.402;2023-09-19T03:55:35;16.60;99.90
41876;DHT22;27555;50.808;4.402;2023-09-19T03:58:01;16.40;99.90
41876;DHT22;27555;50.808;4.402;2023-09-19T04:00:27;16.50;99.90
41876;DHT22;27555;50.808;4.402;2023-09-19T04:02:54;16.40;99.90
41876;DHT22;27555;50.808;4.402;2023-09-19T04:05:22;16.30;99.90
41876;DHT22;27555;50.808;4.402;2023-09-19T04:07:48;16.30;99.90
41876;DHT22;27555;50.808;4.402;2023-09-19T04:10:14;16.20;99.90
41876;DHT22;27555;50.808;4.402;2023-09-19T04:12:40;16.20;99.90
41876;DHT22;27555;50.808;4.402;2023-09-19T04:15:06;16.20;99.90
41876;DHT22;27555;50.808;4.402;2023-09-19T04:17:33;16.10;99.90
41876;DHT22;27555;50.808;4.402;2023-09-19T04:19:59;16.20;99.90
41876;DHT22;27555;50.808;4.402;2023-09-19T04:22:25;16.10;99.90
41876;DHT22;27555;50.808;4.402;2023-09-19T04:24:50;16.20;99.90
41876;DHT22;27555;50.808;4.402;2023-09-19T04:27:16;16.30;99.90
41876;DHT22;27555;50.808;4.402;2023-09-19T04:29:42;16.20;99.90
41876;DHT22;27555;50.808;4.402;2023-09-19T04:32:08;16.30;99.90
41876;DHT22;27555;50.808;4.402;2023-09-19T04:34:35;16.30;99.90
41876;DHT22;27555;50.808;4.402;2023-09-19T04:37:00;16.20;99.90
41876;DHT22;27555;50.808;4.402;2023-09-19T04:39:27;16.20;99.90
41876;DHT22;27555;50.808;4.402;2023-09-19T04:41:56;16.30;99.90
41876;DHT22;27555;50.808;4.402;2023-09-19T04:44:25;16.30;99.90
41876;DHT22;27555;50.808;4.402;2023-09-19T04:46:51;16.10;99.90
41876;DHT22;27555;50.808;4.402;2023-09-19T04:49:18;16.10;99.90
41876;DHT22;27555;50.808;4.402;2023-09-19T04:51:45;16.00;99.90
41876;DHT22;27555;50.808;4.402;2023-09-19T04:54:12;15.80;99.90
41876;DHT22;27555;50.808;4.402;2023-09-19T04:56:38;15.70;99.90
41876;DHT22;27555;50.808;4.402;2023-09-19T04:59:05;15.50;99.90
41876;DHT22;27555;50.808;4.402;2023-09-19T05:01:32;15.60;99.90
41876;DHT22;27555;50.808;4.402;2023-09-19T05:03:58;15.70;99.90
41876;DHT22;27555;50.808;4.402;2023-09-19T05:06:24;15.70;99.90
41876;DHT22;27555;50.808;4.402;2023-09-19T05:08:52;15.70;99.90
41876;DHT22;27555;50.808;4.402;2023-09-19T05:11:19;15.80;99.90
41876;DHT22;27555;50.808;4.402;2023-09-19T05:13:49;15.90;99.90
41876;DHT22;27555;50.808;4.402;2023-09-19T05:16:16;15.80;99.90
41876;DHT22;27555;50.808;4.402;2023-09-19T05:18:41;15.70;99.90
41876;DHT22;27555;50.808;4.402;2023-09-19T05:21:07;15.60;99.90
41876;DHT22;27555;50.808;4.402;2023-09-19T05:23:33;15.70;99.90
41876;DHT22;27555;50.808;4.402;2023-09-19T05:25:59;15.80;99.90
41876;DHT22;27555;50.808;4.402;2023-09-19T05:28:25;15.90;99.90
41876;DHT22;27555;50.808;4.402;2023-09-19T05:30:57;15.90;99.90
41876;DHT22;27555;50.808;4.402;2023-09-19T05:33:24;15.80;99.90
41876;DHT22;27555;50.808;4.402;2023-09-19T05:35:49;15.80;99.90
41876;DHT22;27555;50.808;4.402;2023-09-19T05:38:15;15.80;99.90
41876;DHT22;27555;50.808;4.402;2023-09-19T05:40:45;15.90;99.90
41876;DHT22;27555;50.808;4.402;2023-09-19T05:43:10;15.90;99.90
41876;DHT22;27555;50.808;4.402;2023-09-19T05:45:36;15.90;99.90
41876;DHT22;27555;50.808;4.402;2023-09-19T05:48:14;16.00;99.90
41876;DHT22;27555;50.808;4.402;2023-09-19T05:50:41;15.90;99.90
41876;DHT22;27555;50.808;4.402;2023-09-19T05:53:07;15.90;99.90
41876;DHT22;27555;50.808;4.402;2023-09-19T05:55:33;16.00;99.90
41876;DHT22;27555;50.808;4.402;2023-09-19T05:57:59;16.10;99.90
41876;DHT22;27555;50.808;4.402;2023-09-19T06:00:25;16.20;99.90
41876;DHT22;27555;50.808;4.402;2023-09-19T06:02:54;16.10;99.90
41876;DHT22;27555;50.808;4.402;2023-09-19T06:05:20;16.10;99.90
41876;DHT22;27555;50.808;4.402;2023-09-19T06:07:46;15.90;99.90
41876;DHT22;27555;50.808;4.402;2023-09-19T06:10:12;16.10;99.90
41876;DHT22;27555;50.808;4.402;2023-09-19T06:12:41;16.10;99.90
41876;DHT22;27555;50.808;4.402;2023-09-19T06:15:11;16.30;99.90
41876;DHT22;27555;50.808;4.402;2023-09-19T06:17:54;16.20;99.90
41876;DHT22;27555;50.808;4.402;2023-09-19T06:20:25;16.10;99.90
41876;DHT22;27555;50.808;4.402;2023-09-19T06:22:52;16.00;99.90
41876;DHT22;27555;50.808;4.402;2023-09-19T06:25:18;16.10;99.90
41876;DHT22;27555;50.808;4.402;2023-09-19T06:27:51;16.00;99.90
41876;DHT22;27555;50.808;4.402;2023-09-19T06:30:22;16.10;99.90
41876;DHT22;27555;50.808;4.402;2023-09-19T06:32:58;16.20;99.90
41876;DHT22;27555;50.808;4.402;2023-09-19T06:35:25;16.30;99.90
41876;DHT22;27555;50.808;4.402;2023-09-19T06:37:52;16.30;99.90
41876;DHT22;27555;50.808;4.402;2023-09-19T06:40:18;16.40;99.90
41876;DHT22;27555;50.808;4.402;2023-09-19T06:42:51;16.50;99.90
41876;DHT22;27555;50.808;4.402;2023-09-19T06:45:18;16.70;99.90
41876;DHT22;27555;50.808;4.402;2023-09-19T06:47:45;16.60;99.90
41876;DHT22;27555;50.808;4.402;2023-09-19T06:50:11;16.50;99.90
41876;DHT22;27555;50.808;4.402;2023-09-19T06:52:43;16.60;99.90
41876;DHT22;27555;50.808;4.402;2023-09-19T06:55:09;16.70;99.90
41876;DHT22;27555;50.808;4.402;2023-09-19T06:57:39;16.90;99.90
41876;DHT22;27555;50.808;4.402;2023-09-19T07:00:06;16.90;99.90
41876;DHT22;27555;50.808;4.402;2023-09-19T07:03:00;17.00;99.90
41876;DHT22;27555;50.808;4.402;2023-09-19T07:05:30;17.00;99.90
41876;DHT22;27555;50.808;4.402;2023-09-19T07:08:00;17.10;99.90
41876;DHT22;27555;50.808;4.402;2023-09-19T07:10:26;17.40;99.90
41876;DHT22;27555;50.808;4.402;2023-09-19T07:15:25;18.00;99.90
41876;DHT22;27555;50.808;4.402;2023-09-19T07:17:55;18.20;99.90
41876;DHT22;27555;50.808;4.402;2023-09-19T07:20:21;18.70;99.90
41876;DHT22;27555;50.808;4.402;2023-09-19T07:22:48;19.00;99.90
41876;DHT22;27555;50.808;4.402;2023-09-19T07:25:16;19.40;99.90
41876;DHT22;27555;50.808;4.402;2023-09-19T07:27:42;19.70;99.90
41876;DHT22;27555;50.808;4.402;2023-09-19T07:30:09;20.20;99.90
41876;DHT22;27555;50.808;4.402;2023-09-19T07:32:35;20.60;99.90
41876;DHT22;27555;50.808;4.402;2023-09-19T07:35:05;20.80;99.90
41876;DHT22;27555;50.808;4.402;2023-09-19T07:37:31;20.90;99.90
41876;DHT22;27555;50.808;4.402;2023-09-19T07:39:59;21.20;99.80
41876;DHT22;27555;50.808;4.402;2023-09-19T07:42:26;21.60;99.20
41876;DHT22;27555;50.808;4.402;2023-09-19T07:44:52;21.90;98.50
41876;DHT22;27555;50.808;4.402;2023-09-19T07:47:20;22.00;98.10
41876;DHT22;27555;50.808;4.402;2023-09-19T07:49:47;21.90;98.10
41876;DHT22;27555;50.808;4.402;2023-09-19T07:52:13;21.60;98.40
41876;DHT22;27555;50.808;4.402;2023-09-19T07:54:39;21.60;98.30
41876;DHT22;27555;50.808;4.402;2023-09-19T07:57:07;21.80;98.30
41876;DHT22;27555;50.808;4.402;2023-09-19T07:59:32;22.20;97.80
41876;DHT22;27555;50.808;4.402;2023-09-19T08:01:58;22.40;97.50
41876;DHT22;27555;50.808;4.402;2023-09-19T08:04:24;22.60;97.10
41876;DHT22;27555;50.808;4.402;2023-09-19T08:06:57;22.70;96.90
41876;DHT22;27555;50.808;4.402;2023-09-19T08:09:26;23.00;96.70
41876;DHT22;27555;50.808;4.402;2023-09-19T08:11:51;23.20;96.20
41876;DHT22;27555;50.808;4.402;2023-09-19T08:14:17;23.10;96.30
41876;DHT22;27555;50.808;4.402;2023-09-19T08:16:43;23.30;96.10
41876;DHT22;27555;50.808;4.402;2023-09-19T08:19:12;23.40;95.90
41876;DHT22;27555;50.808;4.402;2023-09-19T08:21:38;23.20;95.70
41876;DHT22;27555;50.808;4.402;2023-09-19T08:24:03;23.10;96.00
41876;DHT22;27555;50.808;4.402;2023-09-19T08:26:29;23.50;95.70
41876;DHT22;27555;50.808;4.402;2023-09-19T08:28:56;23.80;95.50
41876;DHT22;27555;50.808;4.402;2023-09-19T08:31:22;24.10;94.80
41876;DHT22;27555;50.808;4.402;2023-09-19T08:33:49;24.30;94.60
41876;DHT22;27555;50.808;4.402;2023-09-19T08:36:16;24.40;94.30
41876;DHT22;27555;50.808;4.402;2023-09-19T08:38:42;24.60;94.00
41876;DHT22;27555;50.808;4.402;2023-09-19T08:41:08;24.00;94.20
41876;DHT22;27555;50.808;4.402;2023-09-19T08:43:34;24.20;94.30
41876;DHT22;27555;50.808;4.402;2023-09-19T08:46:20;24.60;94.10
41876;DHT22;27555;50.808;4.402;2023-09-19T08:49:03;24.50;93.80
41876;DHT22;27555;50.808;4.402;2023-09-19T08:51:45;24.70;93.30
41876;DHT22;27555;50.808;4.402;2023-09-19T08:54:22;24.50;93.30
41876;DHT22;27555;50.808;4.402;2023-09-19T08:56:53;24.40;93.30
41876;DHT22;27555;50.808;4.402;2023-09-19T08:59:21;24.30;93.40
41876;DHT22;27555;50.808;4.402;2023-09-19T09:01:51;24.40;93.40
41876;DHT22;27555;50.808;4.402;2023-09-19T09:04:19;24.80;93.40
41876;DHT22;27555;50.808;4.402;2023-09-19T09:06:46;25.20;92.50
41876;DHT22;27555;50.808;4.402;2023-09-19T09:09:15;24.90;92.50
41876;DHT22;27555;50.808;4.402;2023-09-19T09:11:41;24.90;92.50
41876;DHT22;27555;50.808;4.402;2023-09-19T09:14:07;25.00;92.60
41876;DHT22;27555;50.808;4.402;2023-09-19T09:16:34;25.20;92.30
41876;DHT22;27555;50.808;4.402;2023-09-19T09:19:00;25.30;91.90
41876;DHT22;27555;50.808;4.402;2023-09-19T09:21:27;25.30;92.10
41876;DHT22;27555;50.808;4.402;2023-09-19T09:23:52;25.00;92.00
41876;DHT22;27555;50.808;4.402;2023-09-19T09:26:41;24.40;92.50
41876;DHT22;27555;50.808;4.402;2023-09-19T09:29:08;24.30;93.00
41876;DHT22;27555;50.808;4.402;2023-09-19T09:31:33;24.60;92.80
41876;DHT22;27555;50.808;4.402;2023-09-19T09:34:00;24.60;92.90
41876;DHT22;27555;50.808;4.402;2023-09-19T09:36:40;24.40;92.70
41876;DHT22;27555;50.808;4.402;2023-09-19T09:39:09;24.20;92.90
41876;DHT22;27555;50.808;4.402;2023-09-19T09:41:44;23.90;93.00
41876;DHT22;27555;50.808;4.402;2023-09-19T09:44:15;23.90;93.10
41876;DHT22;27555;50.808;4.402;2023-09-19T09:46:43;23.60;93.10
41876;DHT22;27555;50.808;4.402;2023-09-19T09:49:25;23.40;93.10
41876;DHT22;27555;50.808;4.402;2023-09-19T09:52:02;23.20;93.30
41876;DHT22;27555;50.808;4.402;2023-09-19T09:55:01;23.10;93.30
41876;DHT22;27555;50.808;4.402;2023-09-19T09:57:37;22.80;93.40
41876;DHT22;27555;50.808;4.402;2023-09-19T10:00:06;22.40;93.40
41876;DHT22;27555;50.808;4.402;2023-09-19T10:02:46;22.10;93.90
41876;DHT22;27555;50.808;4.402;2023-09-19T10:05:19;21.90;94.10
41876;DHT22;27555;50.808;4.402;2023-09-19T10:08:15;22.20;94.30
41876;DHT22;27555;50.808;4.402;2023-09-19T10:10:44;22.80;93.60
41876;DHT22;27555;50.808;4.402;2023-09-19T10:13:30;22.90;93.50
41876;DHT22;27555;50.808;4.402;2023-09-19T10:15:59;23.10;93.50
41876;DHT22;27555;50.808;4.402;2023-09-19T10:18:29;23.40;93.20
41876;DHT22;27555;50.808;4.402;2023-09-19T10:20:59;23.70;92.80
41876;DHT22;27555;50.808;4.402;2023-09-19T10:23:31;24.30;92.40
41876;DHT22;27555;50.808;4.402;2023-09-19T10:26:01;24.80;92.00
41876;DHT22;27555;50.808;4.402;2023-09-19T10:28:28;25.10;91.60
41876;DHT22;27555;50.808;4.402;2023-09-19T10:30:56;25.70;91.40
41876;DHT22;27555;50.808;4.402;2023-09-19T10:33:24;26.30;91.10
41876;DHT22;27555;50.808;4.402;2023-09-19T10:35:57;26.90;90.60
41876;DHT22;27555;50.808;4.402;2023-09-19T10:38:25;27.40;90.20
41876;DHT22;27555;50.808;4.402;2023-09-19T10:40:53;27.40;89.60
41876;DHT22;27555;50.808;4.402;2023-09-19T10:43:21;27.60;89.50
41876;DHT22;27555;50.808;4.402;2023-09-19T10:45:50;27.80;89.10
41876;DHT22;27555;50.808;4.402;2023-09-19T10:48:19;27.10;90.00
41876;DHT22;27555;50.808;4.402;2023-09-19T10:54:02;26.90;90.10
41876;DHT22;27555;50.808;4.402;2023-09-19T10:56:37;27.30;89.80
41876;DHT22;27555;50.808;4.402;2023-09-19T10:59:14;27.40;88.90
41876;DHT22;27555;50.808;4.402;2023-09-19T11:02:15;27.00;89.20
41876;DHT22;27555;50.808;4.402;2023-09-19T11:04:41;26.80;90.20
41876;DHT22;27555;50.808;4.402;2023-09-19T11:07:09;27.70;89.30
41876;DHT22;27555;50.808;4.402;2023-09-19T11:12:12;28.10;88.40
41876;DHT22;27555;50.808;4.402;2023-09-19T11:14:39;28.80;87.40
41876;DHT22;27555;50.808;4.402;2023-09-19T11:20:17;27.90;88.10
41876;DHT22;27555;50.808;4.402;2023-09-19T11:30:39;28.60;86.70
41876;DHT22;27555;50.808;4.402;2023-09-19T11:36:09;28.90;87.40
41876;DHT22;27555;50.808;4.402;2023-09-19T11:43:51;26.60;89.40
41876;DHT22;27555;50.808;4.402;2023-09-19T11:46:18;26.30;90.20
41876;DHT22;27555;50.808;4.402;2023-09-19T11:48:50;26.30;90.10
41876;DHT22;27555;50.808;4.402;2023-09-19T11:51:18;26.10;90.10
41876;DHT22;27555;50.808;4.402;2023-09-19T11:53:57;26.10;90.20
41876;DHT22;27555;50.808;4.402;2023-09-19T11:56:26;25.30;90.70
41876;DHT22;27555;50.808;4.402;2023-09-19T11:58:54;24.80;91.50
41876;DHT22;27555;50.808;4.402;2023-09-19T12:01:33;24.40;91.60
41876;DHT22;27555;50.808;4.402;2023-09-19T12:04:02;24.10;91.90
41876;DHT22;27555;50.808;4.402;2023-09-19T12:06:30;23.90;92.40
41876;DHT22;27555;50.808;4.402;2023-09-19T12:08:58;23.50;92.60
41876;DHT22;27555;50.808;4.402;2023-09-19T12:11:30;23.60;92.50
41876;DHT22;27555;50.808;4.402;2023-09-19T12:14:02;23.40;92.90
41876;DHT22;27555;50.808;4.402;2023-09-19T12:16:28;23.20;92.80
41876;DHT22;27555;50.808;4.402;2023-09-19T12:19:17;22.90;93.20
41876;DHT22;27555;50.808;4.402;2023-09-19T12:21:57;22.40;93.90
41876;DHT22;27555;50.808;4.402;2023-09-19T12:24:25;23.10;93.60
41876;DHT22;27555;50.808;4.402;2023-09-19T12:26:59;23.30;93.10
41876;DHT22;27555;50.808;4.402;2023-09-19T12:29:27;22.90;93.40
41876;DHT22;27555;50.808;4.402;2023-09-19T12:31:54;22.80;93.50
41876;DHT22;27555;50.808;4.402;2023-09-19T12:34:32;22.90;93.70
41876;DHT22;27555;50.808;4.402;2023-09-19T12:37:17;23.00;93.70
41876;DHT22;27555;50.808;4.402;2023-09-19T12:40:04;22.70;93.70
41876;DHT22;27555;50.808;4.402;2023-09-19T12:42:43;22.40;94.40
41876;DHT22;27555;50.808;4.402;2023-09-19T12:45:10;22.40;94.50
41876;DHT22;27555;50.808;4.402;2023-09-19T12:47:39;22.40;94.50
41876;DHT22;27555;50.808;4.402;2023-09-19T12:50:10;22.50;94.40
41876;DHT22;27555;50.808;4.402;2023-09-19T12:52:45;22.60;94.50
41876;DHT22;27555;50.808;4.402;2023-09-19T13:03:29;22.70;94.50
41876;DHT22;27555;50.808;4.402;2023-09-19T13:05:58;22.50;94.90
41876;DHT22;27555;50.808;4.402;2023-09-19T13:11:10;22.50;94.70
41876;DHT22;27555;50.808;4.402;2023-09-19T13:13:42;22.50;95.00
41876;DHT22;27555;50.808;4.402;2023-09-19T13:16:10;22.30;95.50
41876;DHT22;27555;50.808;4.402;2023-09-19T13:19:06;22.40;95.40
41876;DHT22;27555;50.808;4.402;2023-09-19T13:21:32;22.50;95.10
41876;DHT22;27555;50.808;4.402;2023-09-19T13:24:22;22.60;95.20
41876;DHT22;27555;50.808;4.402;2023-09-19T13:26:48;22.60;95.10
41876;DHT22;27555;50.808;4.402;2023-09-19T13:29:14;22.40;95.30
41876;DHT22;27555;50.808;4.402;2023-09-19T13:31:46;22.40;95.20
41876;DHT22;27555;50.808;4.402;2023-09-19T13:34:12;22.40;95.30
41876;DHT22;27555;50.808;4.402;2023-09-19T13:36:39;22.30;95.70
41876;DHT22;27555;50.808;4.402;2023-09-19T13:39:05;22.30;95.30
41876;DHT22;27555;50.808;4.402;2023-09-19T13:41:32;22.20;95.30
41876;DHT22;27555;50.808;4.402;2023-09-19T13:43:57;22.20;95.20
41876;DHT22;27555;50.808;4.402;2023-09-19T13:46:23;22.20;95.30
41876;DHT22;27555;50.808;4.402;2023-09-19T13:48:51;22.20;95.30
41876;DHT22;27555;50.808;4.402;2023-09-19T13:51:21;22.10;95.50
41876;DHT22;27555;50.808;4.402;2023-09-19T13:53:48;22.40;95.80
41876;DHT22;27555;50.808;4.402;2023-09-19T13:56:16;22.40;95.20
41876;DHT22;27555;50.808;4.402;2023-09-19T13:58:41;22.20;95.40
41876;DHT22;27555;50.808;4.402;2023-09-19T14:01:07;22.00;95.70
41876;DHT22;27555;50.808;4.402;2023-09-19T14:03:41;22.10;95.60
41876;DHT22;27555;50.808;4.402;2023-09-19T14:06:13;22.00;95.70
41876;DHT22;27555;50.808;4.402;2023-09-19T14:08:39;21.90;95.70
41876;DHT22;27555;50.808;4.402;2023-09-19T14:11:08;21.90;95.90
41876;DHT22;27555;50.808;4.402;2023-09-19T14:13:34;22.10;95.80
41876;DHT22;27555;50.808;4.402;2023-09-19T14:16:04;22.10;95.80
41876;DHT22;27555;50.808;4.402;2023-09-19T14:18:30;22.30;95.40
41876;DHT22;27555;50.808;4.402;2023-09-19T14:20:56;22.40;95.40
41876;DHT22;27555;50.808;4.402;2023-09-19T14:23:22;22.40;95.20
41876;DHT22;27555;50.808;4.402;2023-09-19T14:25:50;22.30;95.30
41876;DHT22;27555;50.808;4.402;2023-09-19T14:28:15;22.30;95.50
41876;DHT22;27555;50.808;4.402;2023-09-19T14:30:41;22.50;95.30
41876;DHT22;27555;50.808;4.402;2023-09-19T14:33:06;22.40;95.30
41876;DHT22;27555;50.808;4.402;2023-09-19T14:35:32;22.60;95.10
41876;DHT22;27555;50.808;4.402;2023-09-19T14:37:58;22.60;94.90
41876;DHT22;27555;50.808;4.402;2023-09-19T14:40:24;22.60;95.20
41876;DHT22;27555;50.808;4.402;2023-09-19T14:42:51;22.40;95.40
41876;DHT22;27555;50.808;4.402;2023-09-19T14:45:16;22.30;95.50
41876;DHT22;27555;50.808;4.402;2023-09-19T14:47:45;22.30;95.60
41876;DHT22;27555;50.808;4.402;2023-09-19T14:50:11;22.20;95.60
41876;DHT22;27555;50.808;4.402;2023-09-19T14:52:38;22.30;95.70
41876;DHT22;27555;50.808;4.402;2023-09-19T14:55:06;22.30;95.80
41876;DHT22;27555;50.808;4.402;2023-09-19T14:57:31;22.30;95.90
41876;DHT22;27555;50.808;4.402;2023-09-19T14:59:58;22.40;95.50
41876;DHT22;27555;50.808;4.402;2023-09-19T15:02:25;22.30;95.70
41876;DHT22;27555;50.808;4.402;2023-09-19T15:04:52;22.10;95.70
41876;DHT22;27555;50.808;4.402;2023-09-19T15:07:18;22.00;96.00
41876;DHT22;27555;50.808;4.402;2023-09-19T15:09:44;22.10;95.60
41876;DHT22;27555;50.808;4.402;2023-09-19T15:12:10;22.00;95.60
41876;DHT22;27555;50.808;4.402;2023-09-19T15:14:40;21.70;95.90
41876;DHT22;27555;50.808;4.402;2023-09-19T15:17:07;21.80;96.20
41876;DHT22;27555;50.808;4.402;2023-09-19T15:19:32;21.80;96.20
41876;DHT22;27555;50.808;4.402;2023-09-19T15:21:58;21.60;96.60
41876;DHT22;27555;50.808;4.402;2023-09-19T15:24:24;21.60;96.50
41876;DHT22;27555;50.808;4.402;2023-09-19T15:26:52;21.60;96.50
41876;DHT22;27555;50.808;4.402;2023-09-19T15:29:17;21.70;96.50
41876;DHT22;27555;50.808;4.402;2023-09-19T15:31:45;21.60;96.60
41876;DHT22;27555;50.808;4.402;2023-09-19T15:34:10;21.50;96.60
41876;DHT22;27555;50.808;4.402;2023-09-19T15:36:39;21.50;96.70
41876;DHT22;27555;50.808;4.402;2023-09-19T15:39:08;21.20;96.90
41876;DHT22;27555;50.808;4.402;2023-09-19T15:41:40;21.20;96.90
41876;DHT22;27555;50.808;4.402;2023-09-19T15:44:16;21.10;97.30
41876;DHT22;27555;50.808;4.402;2023-09-19T15:46:42;21.00;97.20
41876;DHT22;27555;50.808;4.402;2023-09-19T15:49:09;21.00;97.30
41876;DHT22;27555;50.808;4.402;2023-09-19T15:51:35;21.10;97.30
41876;DHT22;27555;50.808;4.402;2023-09-19T15:54:07;21.30;97.20
41876;DHT22;27555;50.808;4.402;2023-09-19T15:56:33;21.30;97.00
41876;DHT22;27555;50.808;4.402;2023-09-19T15:59:02;21.10;97.30
41876;DHT22;27555;50.808;4.402;2023-09-19T16:01:28;21.10;97.50
41876;DHT22;27555;50.808;4.402;2023-09-19T16:03:54;21.20;97.30
41876;DHT22;27555;50.808;4.402;2023-09-19T16:06:27;21.10;97.30
41876;DHT22;27555;50.808;4.402;2023-09-19T16:08:55;21.20;97.30
41876;DHT22;27555;50.808;4.402;2023-09-19T16:11:24;21.30;97.20
41876;DHT22;27555;50.808;4.402;2023-09-19T16:13:51;21.10;97.30
41876;DHT22;27555;50.808;4.402;2023-09-19T16:16:18;21.00;97.70
41876;DHT22;27555;50.808;4.402;2023-09-19T16:18:50;21.00;97.60
41876;DHT22;27555;50.808;4.402;2023-09-19T16:21:24;21.00;97.50
41876;DHT22;27555;50.808;4.402;2023-09-19T16:23:50;20.90;97.70
41876;DHT22;27555;50.808;4.402;2023-09-19T16:26:17;20.60;98.00
41876;DHT22;27555;50.808;4.402;2023-09-19T16:28:47;20.60;98.00
41876;DHT22;27555;50.808;4.402;2023-09-19T16:31:13;20.60;98.20
41876;DHT22;27555;50.808;4.402;2023-09-19T16:33:40;20.60;98.30
41876;DHT22;27555;50.808;4.402;2023-09-19T16:36:15;20.60;98.20